Time;durP1;ratioP1;P1;durP2;ratioP2;P2;SDS_P1;SDS_P2;PMS_P1;PMS_P2;Temp;Humidity;BMP_temperature;BMP_pressure;BME280_temperature;BME280_humidity;BME280_pressure;Samples;Min_cycle;Max_cycle;Signal;HPM_P1;HPM_P2
2022/12/07 00:01:19;;;;;;;7.85;4.45;;;19.90;52.40;;;;;;5044867;28;20366;-76
2022/12/07 00:03:47;;;;;;;9.40;4.40;;;19.80;52.50;;;;;;5046151;28;20032;-77
2022/12/07 00:06:15;;;;;;;6.65;4.18;;;19.80;52.50;;;;;;5047891;28;20037;-76
2022/12/07 00:08:41;;;;;;;8.13;4.70;;;19.80;52.30;;;;;;5050406;28;20044;-77
2022/12/07 00:11:16;;;;;;;10.63;4.70;;;19.80;52.30;;;;;;5033597;28;20021;-77
2022/12/07 00:13:42;;;;;;;7.38;4.55;;;19.80;52.20;;;;;;5050555;28;20032;-77
2022/12/07 00:16:14;;;;;;;8.68;4.47;;;19.80;52.40;;;;;;5051967;28;20035;-76
2022/12/07 00:18:40;;;;;;;8.85;4.63;;;19.90;52.20;;;;;;5051816;28;20104;-76
2022/12/07 00:21:10;;;;;;;7.97;4.28;;;19.80;52.10;;;;;;5048883;28;20078;-77
2022/12/07 00:23:37;;;;;;;8.70;4.40;;;19.80;52.20;;;;;;5051721;28;20496;-77
2022/12/07 00:26:26;;;;;;;7.07;4.38;;;19.90;52.10;;;;;;5051438;28;20111;-77
2022/12/07 00:28:54;;;;;;;6.28;4.45;;;20.00;52.80;;;;;;5048612;28;20086;-77
2022/12/07 00:31:23;;;;;;;7.40;4.22;;;20.00;52.10;;;;;;5049928;28;20028;-77
2022/12/07 00:33:49;;;;;;;8.68;3.80;;;20.00;52.10;;;;;;5048061;28;20472;-77
2022/12/07 00:36:18;;;;;;;6.80;4.50;;;20.00;52.10;;;;;;5051535;28;20025;-77
2022/12/07 00:38:44;;;;;;;7.28;4.25;;;20.00;51.90;;;;;;5051363;28;20028;-77
2022/12/07 00:41:18;;;;;;;5.90;4.43;;;20.00;51.80;;;;;;5049832;28;20028;-77
2022/12/07 00:43:46;;;;;;;8.32;4.40;;;20.10;51.80;;;;;;5051329;28;20592;-77
2022/12/07 00:46:12;;;;;;;6.05;4.22;;;20.00;51.70;;;;;;5049572;28;20047;-77
2022/12/07 00:48:38;;;;;;;6.05;4.00;;;20.10;51.90;;;;;;5051249;28;20017;-77
2022/12/07 00:51:05;;;;;;;5.53;3.80;;;20.10;51.90;;;;;;5048921;28;20421;-77
2022/12/07 00:53:34;;;;;;;6.45;3.95;;;20.00;51.90;;;;;;5051710;28;20104;-76
2022/12/07 00:56:05;;;;;;;5.65;3.78;;;20.00;52.00;;;;;;5050099;28;20048;-77
2022/12/07 00:58:31;;;;;;;5.70;3.80;;;20.00;51.70;;;;;;5039747;28;20071;-76
2022/12/07 01:01:01;;;;;;;6.80;4.30;;;19.90;51.90;;;;;;5048937;28;20029;-77
2022/12/07 01:03:27;;;;;;;6.07;3.90;;;20.00;52.10;;;;;;5050294;28;20028;-77
2022/12/07 01:05:55;;;;;;;5.68;3.92;;;19.90;52.00;;;;;;5049658;28;20029;-77
2022/12/07 01:08:22;;;;;;;7.22;3.78;;;19.90;52.00;;;;;;5050932;28;20500;-77
2022/12/07 01:10:49;;;;;;;6.03;3.90;;;19.90;52.20;;;;;;5050780;28;20023;-76
2022/12/07 01:13:15;;;;;;;5.45;3.97;;;19.90;52.20;;;;;;5049754;28;20120;-77
2022/12/07 01:15:43;;;;;;;4.60;3.55;;;19.80;52.20;;;;;;5049597;28;20539;-77
2022/12/07 01:18:09;;;;;;;8.27;3.95;;;19.80;52.40;;;;;;5050882;28;20079;-77
2022/12/07 01:20:35;;;;;;;5.78;3.95;;;19.80;52.90;;;;;;5050682;28;20436;-77
2022/12/07 01:23:01;;;;;;;5.03;3.42;;;19.90;52.40;;;;;;5050809;28;20090;-77
2022/12/07 01:25:27;;;;;;;5.63;3.95;;;19.80;52.30;;;;;;5049827;28;20079;-77
2022/12/07 01:27:53;;;;;;;5.70;3.70;;;19.80;52.60;;;;;;5050855;28;20389;-76
2022/12/07 01:30:18;;;;;;;4.78;3.53;;;19.80;52.60;;;;;;5050926;28;20044;-77
2022/12/07 01:32:44;;;;;;;6.93;3.67;;;19.70;52.60;;;;;;5049480;28;20030;-77
2022/12/07 01:35:10;;;;;;;5.38;3.58;;;19.70;52.70;;;;;;5050677;28;20059;-77
2022/12/07 01:37:38;;;;;;;5.28;3.30;;;19.70;52.80;;;;;;5049490;28;20021;-77
2022/12/07 01:40:07;;;;;;;6.40;3.92;;;19.70;52.80;;;;;;5050531;28;20039;-77
2022/12/07 01:42:34;;;;;;;7.15;3.75;;;19.70;52.70;;;;;;5050495;28;20059;-77
2022/12/07 01:45:18;;;;;;;4.97;3.28;;;19.70;52.70;;;;;;5050518;28;20104;-77
2022/12/07 01:47:51;;;;;;;4.93;3.53;;;19.70;52.80;;;;;;5050390;28;20420;-77
2022/12/07 01:50:17;;;;;;;7.30;3.30;;;19.70;52.90;;;;;;5050480;28;20017;-77
2022/12/07 01:52:45;;;;;;;5.45;3.30;;;19.70;52.80;;;;;;5049509;28;20081;-76
2022/12/07 01:55:14;;;;;;;4.37;3.40;;;19.70;52.90;;;;;;5049259;28;20163;-76
2022/12/07 01:57:46;;;;;;;4.63;2.95;;;19.80;52.80;;;;;;5031968;28;20021;-77
2022/12/07 02:00:13;;;;;;;5.25;3.35;;;19.70;52.90;;;;;;5044046;28;20104;-77
2022/12/07 02:02:53;;;;;;;7.25;3.20;;;19.80;52.90;;;;;;5050214;28;20481;-77
2022/12/07 02:05:19;;;;;;;4.05;2.88;;;19.90;52.70;;;;;;5053610;28;20033;-77
2022/12/07 02:07:47;;;;;;;6.53;3.50;;;19.90;52.40;;;;;;5053115;28;20021;-77
2022/12/07 02:10:18;;;;;;;4.43;3.17;;;19.90;52.40;;;;;;5053905;28;20493;-77
2022/12/07 02:12:52;;;;;;;5.60;3.28;;;20.00;52.50;;;;;;5036149;28;20025;-77
2022/12/07 02:15:21;;;;;;;5.93;3.58;;;20.00;52.40;;;;;;5054219;28;20037;-77
2022/12/07 02:18:25;;;;;;;4.78;3.00;;;20.00;52.50;;;;;;5051764;28;20021;-77
2022/12/07 02:20:53;;;;;;;5.80;3.22;;;20.00;52.40;;;;;;5003673;28;20048;-77
2022/12/07 02:23:22;;;;;;;5.18;3.10;;;20.00;52.50;;;;;;5054175;28;20036;-77
2022/12/07 02:26:23;;;;;;;4.63;3.28;;;20.00;52.50;;;;;;5051320;28;20029;-77
2022/12/07 02:29:11;;;;;;;9.05;4.55;;;20.00;52.60;;;;;;5048918;28;20494;-86
2022/12/07 02:31:43;;;;;;;11.52;7.05;;;19.90;51.80;;;;;;5068403;28;20452;-71
2022/12/07 02:34:50;;;;;;;19.20;10.98;;;20.00;52.00;;;;;;5044887;28;20280;-75
2022/12/07 02:37:36;;;;;;;10.38;6.28;;;19.90;51.10;;;;;;5042865;28;20448;-75
2022/12/07 02:40:19;;;;;;;16.52;5.88;;;19.90;51.40;;;;;;5047910;28;20028;-75
2022/12/07 02:42:55;;;;;;;21.15;5.60;;;19.80;52.00;;;;;;5048146;28;20052;-76
2022/12/07 02:45:23;;;;;;;12.43;5.22;;;19.80;52.10;;;;;;5049162;28;20034;-75
2022/12/07 02:47:52;;;;;;;29.80;6.03;;;19.80;52.20;;;;;;5031748;28;20021;-76
2022/12/07 02:50:21;;;;;;;17.85;5.53;;;19.70;52.10;;;;;;5032573;28;20025;-76
2022/12/07 02:52:47;;;;;;;16.58;5.55;;;19.70;52.10;;;;;;5032473;28;20036;-75
2022/12/07 02:55:15;;;;;;;9.15;4.75;;;19.60;52.00;;;;;;5032623;28;20045;-76
2022/12/07 02:57:55;;;;;;;19.30;5.15;;;19.70;52.10;;;;;;5033828;28;20501;-75
2022/12/07 03:00:21;;;;;;;11.60;4.53;;;19.60;52.10;;;;;;5033448;28;20025;-76
2022/12/07 03:03:00;;;;;;;8.85;4.80;;;19.60;52.10;;;;;;5032528;28;20045;-76
2022/12/07 03:05:47;;;;;;;13.25;4.90;;;19.60;52.00;;;;;;5033623;28;20030;-76
2022/12/07 03:08:38;;;;;;;11.18;4.40;;;19.60;52.00;;;;;;5034152;28;20049;-76
2022/12/07 03:11:08;;;;;;;9.45;5.15;;;19.60;51.90;;;;;;5033187;28;20069;-77
2022/12/07 03:13:59;;;;;;;6.93;4.07;;;19.60;51.80;;;;;;5033198;28;20018;-76
2022/12/07 03:16:30;;;;;;;11.55;5.05;;;19.60;52.00;;;;;;5033483;28;20037;-75
2022/12/07 03:19:09;;;;;;;10.18;4.60;;;19.60;51.80;;;;;;5032233;28;20077;-76
2022/12/07 03:22:01;;;;;;;6.82;4.03;;;19.60;52.00;;;;;;5015551;28;20366;-75
2022/12/07 03:24:33;;;;;;;7.13;3.72;;;19.60;51.70;;;;;;5033231;28;20083;-75
2022/12/07 03:27:26;;;;;;;9.30;3.85;;;19.60;51.80;;;;;;5015872;28;20367;-75
2022/12/07 03:30:01;;;;;;;8.23;4.18;;;19.60;51.80;;;;;;5042834;28;20055;-75
2022/12/07 03:32:40;;;;;;;6.55;4.15;;;19.60;51.80;;;;;;5044105;28;20028;-75
2022/12/07 03:35:23;;;;;;;8.30;4.10;;;19.60;51.80;;;;;;5052978;28;20021;-75
2022/12/07 03:37:52;;;;;;;8.18;3.90;;;19.60;52.40;;;;;;5052151;28;20415;-76
2022/12/07 03:40:27;;;;;;;7.37;3.97;;;19.60;51.70;;;;;;5052881;28;20033;-76
2022/12/07 03:42:54;;;;;;;6.50;3.60;;;19.60;51.90;;;;;;5051868;28;20039;-76
2022/12/07 03:45:26;;;;;;;8.48;3.50;;;19.60;51.80;;;;;;5052716;28;20143;-76
2022/12/07 03:48:34;;;;;;;6.90;3.85;;;19.60;52.30;;;;;;5052922;28;20036;-76
2022/12/07 03:51:15;;;;;;;7.35;3.70;;;19.60;51.70;;;;;;5052310;28;20075;-75
2022/12/07 03:53:53;;;;;;;8.15;4.13;;;19.60;51.70;;;;;;5052704;28;20033;-76
2022/12/07 03:56:21;;;;;;;6.07;3.95;;;19.60;51.60;;;;;;5052579;28;20033;-76
2022/12/07 03:58:48;;;;;;;7.00;4.07;;;19.60;51.80;;;;;;5052630;28;20112;-76
2022/12/07 04:01:14;;;;;;;6.97;3.35;;;19.50;51.60;;;;;;5052188;28;20507;-75
2022/12/07 04:03:39;;;;;;;8.25;4.13;;;19.50;51.30;;;;;;5051369;28;20037;-76
2022/12/07 04:06:06;;;;;;;8.05;3.55;;;19.50;51.70;;;;;;5052250;28;20083;-76
2022/12/07 04:08:31;;;;;;;9.60;4.10;;;19.50;51.70;;;;;;5052425;28;20496;-75
2022/12/07 04:10:57;;;;;;;9.23;3.42;;;19.50;52.00;;;;;;5050849;28;20029;-76
2022/12/07 04:13:23;;;;;;;6.97;3.72;;;19.50;51.70;;;;;;5052419;28;20102;-75
2022/12/07 04:15:49;;;;;;;8.85;3.50;;;19.60;51.70;;;;;;5051115;28;20033;-76
2022/12/07 04:18:14;;;;;;;7.00;3.20;;;19.50;52.00;;;;;;5052476;28;20078;-76
2022/12/07 04:20:41;;;;;;;9.15;3.38;;;19.50;51.90;;;;;;5052177;28;20029;-76
2022/12/07 04:23:06;;;;;;;9.30;3.15;;;19.50;51.90;;;;;;5052945;28;20056;-75
2022/12/07 04:25:32;;;;;;;7.10;3.55;;;19.50;51.60;;;;;;5051412;28;20492;-76
2022/12/07 04:27:58;;;;;;;4.95;3.10;;;19.60;51.70;;;;;;5051944;28;20469;-76
2022/12/07 04:30:24;;;;;;;6.82;3.60;;;19.60;51.70;;;;;;5033877;28;20032;-76
2022/12/07 04:32:49;;;;;;;6.53;3.72;;;19.50;51.70;;;;;;5051533;28;20025;-76
2022/12/07 04:35:15;;;;;;;5.35;3.33;;;19.60;51.80;;;;;;5051982;28;20147;-76
2022/12/07 04:37:41;;;;;;;5.57;3.08;;;19.60;51.70;;;;;;5051896;28;20086;-76
2022/12/07 04:40:11;;;;;;;8.55;3.70;;;19.50;51.50;;;;;;5051476;28;20040;-76
2022/12/07 04:42:37;;;;;;;7.78;3.30;;;19.50;51.60;;;;;;5051753;28;20032;-76
2022/12/07 04:45:03;;;;;;;5.90;3.25;;;19.50;51.50;;;;;;5050445;28;20029;-76
2022/12/07 04:47:29;;;;;;;5.47;3.17;;;19.50;51.50;;;;;;5052157;28;20099;-76
2022/12/07 04:49:55;;;;;;;5.53;3.40;;;19.50;51.60;;;;;;5051726;28;20494;-76
2022/12/07 04:52:21;;;;;;;8.50;3.65;;;19.60;51.60;;;;;;5046287;23;20468;-75
2022/12/07 04:54:46;;;;;;;6.35;3.13;;;19.60;51.50;;;;;;5010807;28;20474;-76
2022/12/07 04:57:12;;;;;;;4.90;3.28;;;19.60;51.50;;;;;;5010671;28;20063;-75
2022/12/07 04:59:38;;;;;;;5.63;3.38;;;19.60;51.40;;;;;;5011014;28;20029;-75
2022/12/07 05:02:04;;;;;;;6.18;3.50;;;19.60;51.30;;;;;;5011998;28;20101;-75
2022/12/07 05:04:29;;;;;;;8.05;3.60;;;19.60;51.40;;;;;;5010616;28;20029;-75
2022/12/07 05:06:55;;;;;;;4.45;3.13;;;19.60;51.60;;;;;;4994435;28;20030;-75
2022/12/07 05:09:21;;;;;;;5.93;3.42;;;19.60;51.30;;;;;;5010521;28;20057;-75
2022/12/07 05:11:47;;;;;;;4.43;3.25;;;19.60;51.40;;;;;;5010129;28;20084;-75
2022/12/07 05:14:18;;;;;;;5.18;3.17;;;19.60;51.50;;;;;;5011853;28;20029;-75
2022/12/07 05:16:45;;;;;;;6.18;3.33;;;19.60;51.40;;;;;;5010792;28;20029;-75
2022/12/07 05:19:12;;;;;;;5.18;3.25;;;19.60;51.40;;;;;;5010446;28;20034;-75
2022/12/07 05:21:38;;;;;;;5.95;3.55;;;19.60;51.40;;;;;;5011358;28;20033;-76
2022/12/07 05:24:05;;;;;;;5.93;3.28;;;19.60;51.40;;;;;;5010798;28;20036;-75
2022/12/07 05:26:31;;;;;;;6.93;3.47;;;19.50;51.30;;;;;;5010500;28;20029;-76
2022/12/07 05:28:57;;;;;;;5.57;3.22;;;19.50;51.40;;;;;;5011133;28;20061;-76
2022/12/07 05:31:25;;;;;;;5.78;3.72;;;19.50;51.60;;;;;;4993930;28;20036;-75
2022/12/07 05:33:50;;;;;;;4.65;3.17;;;19.50;51.40;;;;;;5011726;28;20053;-75
2022/12/07 05:36:16;;;;;;;4.82;3.50;;;19.50;51.20;;;;;;5011541;28;20066;-75
2022/12/07 05:38:42;;;;;;;4.95;3.45;;;19.60;51.40;;;;;;5014755;28;20087;-75
2022/12/07 05:42:11;;;;;;;8.38;3.80;;;19.60;51.50;;;;;;5015295;28;20034;-75
2022/12/07 05:43:57;;;;;;;4.95;3.53;;;19.50;51.30;;;;;;5015632;28;20091;-75
2022/12/07 05:46:23;;;;;;;6.95;3.22;;;19.50;51.30;;;;;;5014369;28;20176;-75
2022/12/07 05:48:48;;;;;;;5.03;3.38;;;19.50;51.40;;;;;;5015647;28;20105;-75
2022/12/07 05:51:14;;;;;;;6.95;4.00;;;19.50;51.30;;;;;;5014103;28;20045;-76
2022/12/07 05:53:40;;;;;;;5.78;3.55;;;19.50;51.50;;;;;;5020288;28;20022;-74
2022/12/07 05:56:06;;;;;;;6.35;3.90;;;19.50;51.50;;;;;;5022145;28;20033;-74
2022/12/07 06:01:16;;;;;;;9.80;3.55;;;19.50;51.50;;;;;;5021393;28;20034;-74
2022/12/07 06:03:42;;;;;;;6.22;3.50;;;19.50;51.70;;;;;;5003559;28;20044;-75
2022/12/07 06:06:08;;;;;;;7.57;3.70;;;19.50;51.60;;;;;;5015235;28;20072;-75
2022/12/07 06:08:34;;;;;;;6.03;3.70;;;19.50;51.50;;;;;;5014335;28;20033;-75
2022/12/07 06:13:43;;;;;;;7.55;3.65;;;19.50;51.60;;;;;;5015045;28;20037;-76
2022/12/07 06:16:09;;;;;;;7.07;3.65;;;19.60;51.50;;;;;;5017537;28;20034;-77
2022/12/07 06:18:35;;;;;;;8.50;3.40;;;19.60;51.50;;;;;;5014988;28;20044;-75
2022/12/07 06:21:01;;;;;;;6.47;3.83;;;19.60;51.50;;;;;;5013102;28;20026;-75
2022/12/07 06:23:26;;;;;;;7.40;3.53;;;19.60;51.60;;;;;;5014895;28;20540;-76
2022/12/07 06:25:52;;;;;;;5.68;3.30;;;19.60;51.60;;;;;;5015408;28;20062;-78
2022/12/07 06:28:18;;;;;;;7.10;3.50;;;19.60;51.40;;;;;;5014737;28;20112;-76
2022/12/07 06:30:43;;;;;;;6.88;3.30;;;19.60;51.30;;;;;;5014325;28;20030;-76
2022/12/07 06:33:09;;;;;;;5.00;3.15;;;19.60;51.40;;;;;;5014790;28;20084;-75
2022/12/07 06:35:35;;;;;;;7.72;3.47;;;19.60;51.30;;;;;;5015073;28;20482;-76
2022/12/07 06:38:01;;;;;;;6.40;3.22;;;19.60;51.50;;;;;;5013350;28;20065;-75
2022/12/07 06:40:26;;;;;;;6.05;3.75;;;19.60;51.60;;;;;;5014464;28;20030;-75
2022/12/07 06:42:52;;;;;;;5.10;3.10;;;19.60;51.50;;;;;;5013218;28;20104;-75
2022/12/07 06:45:18;;;;;;;7.18;3.47;;;19.60;51.50;;;;;;5014521;28;20029;-76
2022/12/07 06:47:44;;;;;;;6.22;3.97;;;19.60;51.50;;;;;;5013415;28;20034;-75
2022/12/07 06:50:10;;;;;;;5.53;3.35;;;19.60;51.70;;;;;;5012423;28;20068;-75
2022/12/07 06:52:35;;;;;;;4.85;3.40;;;19.50;51.50;;;;;;5014011;28;20523;-75
2022/12/07 06:55:01;;;;;;;4.00;3.13;;;19.60;51.70;;;;;;4996936;28;20037;-75
2022/12/07 06:57:27;;;;;;;6.03;3.70;;;19.50;51.50;;;;;;5014420;28;20022;-74
2022/12/07 06:59:53;;;;;;;6.65;3.80;;;19.50;51.60;;;;;;4997566;28;20042;-75
2022/12/07 07:02:18;;;;;;;6.03;3.85;;;19.50;51.50;;;;;;4997001;28;20038;-75
2022/12/07 07:04:44;;;;;;;7.78;4.00;;;19.50;51.60;;;;;;5012840;28;20045;-76
2022/12/07 07:07:10;;;;;;;7.05;3.60;;;19.60;51.60;;;;;;5020667;28;20022;-76
2022/12/07 07:09:35;;;;;;;6.85;4.20;;;19.50;51.50;;;;;;5025104;28;20355;-74
2022/12/07 07:12:01;;;;;;;6.95;3.75;;;19.50;51.60;;;;;;5023685;28;20025;-74
2022/12/07 07:14:27;;;;;;;7.63;3.67;;;19.50;51.70;;;;;;5033676;28;20116;-75
2022/12/07 07:16:53;;;;;;;6.25;3.60;;;19.50;51.60;;;;;;5033652;28;20036;-75
2022/12/07 07:19:18;;;;;;;6.25;3.80;;;19.50;51.70;;;;;;5033642;28;20041;-76
2022/12/07 07:21:44;;;;;;;5.90;3.30;;;19.50;51.60;;;;;;5033155;28;20076;-76
2022/12/07 07:24:10;;;;;;;5.50;3.53;;;19.50;51.60;;;;;;5032208;28;20034;-76
2022/12/07 07:26:36;;;;;;;7.05;3.30;;;19.50;51.60;;;;;;5034523;28;20041;-75
2022/12/07 07:29:02;;;;;;;5.78;3.30;;;19.50;51.70;;;;;;5023387;28;20033;-75
2022/12/07 07:31:27;;;;;;;5.40;3.42;;;19.50;51.60;;;;;;5013476;28;20055;-76
2022/12/07 07:33:53;;;;;;;6.28;3.58;;;19.50;51.60;;;;;;5013830;28;20076;-74
2022/12/07 07:36:19;;;;;;;6.18;3.40;;;19.50;51.70;;;;;;5012807;28;20034;-74
2022/12/07 07:38:45;;;;;;;4.57;3.20;;;19.50;51.60;;;;;;5013455;28;20026;-74
2022/12/07 07:41:10;;;;;;;6.68;3.40;;;19.60;51.70;;;;;;5013395;28;20367;-74
2022/12/07 07:43:36;;;;;;;7.47;3.25;;;19.60;51.70;;;;;;5013286;28;20442;-74
2022/12/07 07:46:02;;;;;;;5.97;3.40;;;19.60;51.60;;;;;;5011921;28;20453;-74
2022/12/07 07:48:27;;;;;;;5.85;3.55;;;19.60;51.50;;;;;;5024775;28;20482;-74
2022/12/07 07:50:53;;;;;;;5.18;3.40;;;19.60;51.70;;;;;;5032430;28;20409;-73
2022/12/07 07:53:19;;;;;;;6.57;3.53;;;19.60;51.60;;;;;;5031936;28;20472;-73
2022/12/07 07:55:56;;;;;;;7.95;3.58;;;19.60;51.70;;;;;;5006835;28;20598;-75
2022/12/07 07:58:22;;;;;;;6.18;3.35;;;19.60;51.70;;;;;;5017751;28;20461;-76
2022/12/07 08:00:47;;;;;;;7.93;3.38;;;19.60;51.80;;;;;;5017307;28;20034;-75
2022/12/07 08:03:13;;;;;;;7.75;3.10;;;19.60;51.90;;;;;;5013478;28;20041;-75
2022/12/07 08:05:39;;;;;;;5.65;3.30;;;19.60;51.70;;;;;;5011177;28;20034;-75
2022/12/07 08:08:05;;;;;;;6.72;3.28;;;19.60;51.80;;;;;;5014866;28;20120;-75
2022/12/07 08:10:31;;;;;;;6.20;3.20;;;19.60;51.80;;;;;;5025492;28;20114;-76
2022/12/07 08:13:13;;;;;;;6.80;3.30;;;19.60;51.70;;;;;;5031388;28;20595;-75
2022/12/07 08:15:45;;;;;;;10.45;3.50;;;19.60;51.80;;;;;;5024649;28;20026;-75
2022/12/07 08:18:11;;;;;;;12.95;3.13;;;19.60;51.70;;;;;;5009854;28;20030;-75
2022/12/07 08:20:39;;;;;;;6.05;3.40;;;19.50;51.80;;;;;;4991903;28;20034;-76
2022/12/07 08:23:06;;;;;;;9.50;3.22;;;19.60;52.10;;;;;;5019716;28;20033;-74
2022/12/07 08:25:33;;;;;;;12.25;3.20;;;19.60;52.10;;;;;;5032031;28;20030;-73
2022/12/07 08:28:00;;;;;;;16.00;4.45;;;19.60;52.50;;;;;;5011775;28;20033;-73
2022/12/07 08:30:27;;;;;;;11.05;3.15;;;19.70;53.40;;;;;;5010679;28;20112;-73
2022/12/07 08:32:53;;;;;;;26.45;4.22;;;19.70;53.60;;;;;;4995468;28;20117;-74
2022/12/07 08:35:19;;;;;;;18.35;3.75;;;19.80;53.90;;;;;;4996901;28;21338;-74
2022/12/07 08:37:45;;;;;;;14.57;3.60;;;19.70;53.70;;;;;;5031109;28;20448;-74
2022/12/07 08:40:15;;;;;;;12.70;3.35;;;19.70;53.60;;;;;;5021919;28;20025;-74
2022/12/07 08:42:49;;;;;;;12.77;3.45;;;19.70;53.90;;;;;;5020694;28;20613;-74
2022/12/07 08:45:16;;;;;;;16.40;3.30;;;19.70;53.60;;;;;;5010019;28;20054;-73
2022/12/07 08:47:47;;;;;;;13.35;3.22;;;19.70;52.80;;;;;;5009588;28;20026;-75
2022/12/07 08:50:14;;;;;;;18.20;4.13;;;19.70;52.80;;;;;;5008145;28;20068;-74
2022/12/07 08:52:41;;;;;;;11.35;3.47;;;19.70;52.80;;;;;;5035592;28;20029;-76
2022/12/07 08:55:10;;;;;;;16.63;4.50;;;19.60;53.60;;;;;;5027648;28;20390;-75
2022/12/07 08:57:37;;;;;;;8.90;3.63;;;19.60;53.50;;;;;;5030207;28;20037;-75
2022/12/07 09:00:04;;;;;;;9.52;2.97;;;19.60;52.80;;;;;;5030617;28;20029;-76
2022/12/07 09:02:31;;;;;;;10.40;3.38;;;19.60;52.80;;;;;;5030396;28;20037;-75
2022/12/07 09:04:57;;;;;;;10.65;3.38;;;19.60;52.70;;;;;;5030617;28;20048;-75
2022/12/07 09:07:23;;;;;;;10.25;3.03;;;19.60;52.60;;;;;;5030807;28;20030;-76
2022/12/07 09:09:49;;;;;;;9.32;3.15;;;19.70;52.60;;;;;;5031960;28;20037;-75
2022/12/07 09:12:15;;;;;;;8.50;3.03;;;19.60;52.30;;;;;;5031408;28;20096;-75
2022/12/07 09:14:41;;;;;;;12.60;3.33;;;19.70;52.30;;;;;;5030421;28;20374;-75
2022/12/07 09:17:08;;;;;;;6.90;2.95;;;19.60;52.30;;;;;;5031648;28;20041;-75
2022/12/07 09:19:34;;;;;;;8.80;3.13;;;19.60;52.20;;;;;;5030319;28;20037;-75
2022/12/07 09:22:00;;;;;;;10.20;2.95;;;19.60;52.20;;;;;;5029769;28;20029;-75
2022/12/07 09:24:26;;;;;;;9.30;3.00;;;19.60;52.10;;;;;;5030390;28;20030;-75
2022/12/07 09:26:52;;;;;;;8.77;2.80;;;19.70;52.10;;;;;;5031666;28;20033;-75
2022/12/07 09:29:18;;;;;;;7.13;2.80;;;19.70;52.10;;;;;;5030572;28;20036;-76
2022/12/07 09:31:43;;;;;;;9.02;3.00;;;19.70;52.30;;;;;;5030935;28;20120;-75
2022/12/07 09:34:09;;;;;;;9.95;2.78;;;19.60;51.90;;;;;;5030419;28;20037;-75
2022/12/07 09:36:35;;;;;;;9.07;2.50;;;19.70;52.00;;;;;;5031430;28;20122;-76
2022/12/07 09:39:01;;;;;;;7.47;2.75;;;19.70;52.00;;;;;;5030422;28;20065;-76
2022/12/07 09:41:29;;;;;;;7.13;2.70;;;19.60;51.90;;;;;;5029764;28;20048;-75
2022/12/07 09:44:03;;;;;;;6.57;3.38;;;19.70;51.80;;;;;;5030274;28;20037;-75
2022/12/07 09:46:36;;;;;;;8.95;2.80;;;19.70;51.90;;;;;;5031219;28;20025;-75
2022/12/07 09:49:02;;;;;;;6.75;2.60;;;19.70;51.80;;;;;;5030338;28;20033;-75
2022/12/07 09:51:28;;;;;;;6.57;2.70;;;19.70;51.90;;;;;;5030839;28;20041;-76
2022/12/07 09:53:56;;;;;;;8.93;3.00;;;19.70;51.80;;;;;;5031368;28;20076;-75
2022/12/07 09:56:23;;;;;;;8.68;2.50;;;19.70;51.70;;;;;;5030323;28;20125;-75
2022/12/07 09:58:50;;;;;;;5.97;2.25;;;19.70;51.80;;;;;;4997369;28;20044;-75
2022/12/07 10:01:21;;;;;;;4.95;2.70;;;19.70;51.60;;;;;;5029738;28;20095;-75
2022/12/07 10:03:54;;;;;;;5.70;2.70;;;19.70;51.70;;;;;;5030064;28;20045;-76
2022/12/07 10:06:20;;;;;;;8.52;2.58;;;19.70;51.60;;;;;;5031044;28;20029;-76
2022/12/07 10:08:46;;;;;;;6.45;2.78;;;19.70;51.70;;;;;;5029795;28;20026;-76
2022/12/07 10:11:14;;;;;;;7.45;2.63;;;19.70;51.60;;;;;;5013367;28;20044;-76
2022/12/07 10:13:48;;;;;;;5.90;2.22;;;19.70;51.70;;;;;;5029929;28;20030;-76
2022/12/07 10:16:33;;;;;;;6.82;2.58;;;19.70;51.80;;;;;;5030992;28;20120;-76
2022/12/07 10:19:27;;;;;;;4.53;2.20;;;19.70;51.70;;;;;;5013476;28;20048;-76
2022/12/07 10:22:14;;;;;;;5.82;2.80;;;19.70;51.60;;;;;;5012911;28;20064;-74
2022/12/07 10:24:42;;;;;;;3.85;2.40;;;19.70;51.60;;;;;;5032314;28;20029;-75
2022/12/07 10:27:26;;;;;;;5.28;2.42;;;19.70;51.30;;;;;;5033391;28;20036;-75
2022/12/07 10:29:53;;;;;;;5.82;2.60;;;19.70;51.60;;;;;;5033550;28;20030;-75
2022/12/07 10:32:19;;;;;;;8.82;2.65;;;19.70;51.90;;;;;;5032790;28;20053;-75
2022/12/07 10:34:45;;;;;;;6.30;2.75;;;19.70;51.80;;;;;;5034541;28;20511;-75
2022/12/07 10:37:15;;;;;;;8.50;2.60;;;19.70;51.60;;;;;;5034232;28;20025;-75
2022/12/07 10:39:42;;;;;;;5.70;2.78;;;19.70;51.50;;;;;;5034500;28;20504;-76
2022/12/07 10:42:18;;;;;;;5.72;2.72;;;19.80;51.70;;;;;;5033809;28;20066;-74
2022/12/07 10:44:43;;;;;;;6.53;2.97;;;19.70;51.50;;;;;;5034052;28;20026;-74
2022/12/07 10:47:28;;;;;;;3.60;2.17;;;19.70;51.60;;;;;;5034156;28;20022;-74
2022/12/07 10:50:02;;;;;;;7.43;2.58;;;19.70;51.30;;;;;;5034165;28;20061;-73
2022/12/07 10:52:44;;;;;;;5.97;2.58;;;19.70;51.50;;;;;;5034136;28;20082;-74
2022/12/07 10:55:26;;;;;;;6.47;2.42;;;19.70;51.00;;;;;;5034274;28;20110;-74
2022/12/07 10:58:23;;;;;;;4.57;2.45;;;19.70;51.50;;;;;;5034549;28;20496;-74
2022/12/07 11:01:19;;;;;;;4.50;2.40;;;19.70;51.40;;;;;;5034052;28;20069;-74
2022/12/07 11:04:06;;;;;;;5.07;2.53;;;19.70;51.10;;;;;;5035490;28;20444;-74
2022/12/07 11:07:06;;;;;;;5.05;2.63;;;19.70;51.00;;;;;;5035491;28;20171;-75
2022/12/07 11:09:32;;;;;;;;;;;19.70;51.10;;;;;;5034849;28;20096;-75
2022/12/07 11:12:13;;;;;;;5.95;2.60;;;19.70;51.00;;;;;;5033989;28;20377;-74
2022/12/07 11:14:54;;;;;;;7.20;2.60;;;19.70;50.90;;;;;;5032696;28;20041;-76
2022/12/07 11:17:28;;;;;;;3.78;2.20;;;19.70;51.00;;;;;;5032704;28;20037;-75
2022/12/07 11:20:12;;;;;;;4.15;2.53;;;19.70;51.00;;;;;;5032586;28;20083;-75
2022/12/07 11:22:59;;;;;;;4.55;2.38;;;19.70;50.80;;;;;;5033796;28;20506;-75
2022/12/07 11:25:46;;;;;;;5.75;2.47;;;19.70;50.80;;;;;;5033736;28;20026;-76
2022/12/07 11:28:24;;;;;;;4.70;2.38;;;19.70;50.90;;;;;;5034518;28;20076;-74
2022/12/07 11:31:01;;;;;;;6.07;2.40;;;19.70;50.90;;;;;;5032935;28;20029;-76
2022/12/07 11:33:38;;;;;;;7.00;2.42;;;19.60;50.90;;;;;;5033383;28;20482;-74
2022/12/07 11:36:22;;;;;;;7.93;2.78;;;19.60;51.10;;;;;;5031857;28;20037;-76
2022/12/07 11:38:55;;;;;;;3.88;2.28;;;19.60;51.20;;;;;;5031965;28;20034;-75
2022/12/07 11:41:31;;;;;;;5.05;2.35;;;19.70;50.90;;;;;;5033023;28;20124;-75
2022/12/07 11:44:06;;;;;;;4.63;2.40;;;19.60;50.90;;;;;;5033143;28;20109;-76
2022/12/07 11:46:58;;;;;;;8.15;2.90;;;19.70;50.70;;;;;;5031839;28;20397;-74
2022/12/07 11:49:41;;;;;;;5.43;2.67;;;19.70;50.70;;;;;;5033478;28;20021;-75
2022/12/07 11:52:25;;;;;;;8.50;3.05;;;19.70;50.70;;;;;;5015321;28;20139;-75
2022/12/07 11:54:53;;;;;;;17.27;4.28;;;19.70;51.00;;;;;;4999459;28;20017;-75
2022/12/07 11:57:42;;;;;;;12.52;4.07;;;19.70;51.20;;;;;;5014633;28;20049;-75
2022/12/07 12:00:16;;;;;;;11.13;3.63;;;19.60;51.10;;;;;;5008713;28;20140;-76
2022/12/07 12:02:55;;;;;;;8.68;3.33;;;19.70;51.20;;;;;;5023475;28;20474;-78
2022/12/07 12:05:23;;;;;;;11.95;3.50;;;19.70;51.20;;;;;;5009952;28;20030;-73
2022/12/07 12:08:18;;;;;;;15.60;6.18;;;19.50;48.50;;;;;;5012430;28;20032;-73
2022/12/07 12:11:01;;;;;;;17.02;10.18;;;19.30;44.10;;;;;;5002370;28;20030;-75
2022/12/07 12:13:48;;;;;;;14.10;8.68;;;19.00;42.80;;;;;;4995576;28;20034;-77
2022/12/07 12:16:39;;;;;;;14.25;8.48;;;18.90;43.60;;;;;;5020874;28;20389;-74
2022/12/07 12:19:19;;;;;;;18.63;7.97;;;19.00;44.30;;;;;;5031745;28;20044;-76
2022/12/07 12:21:47;;;;;;;15.43;8.02;;;19.10;45.20;;;;;;5018296;28;20573;-74
2022/12/07 12:24:22;;;;;;;12.02;7.30;;;19.20;45.70;;;;;;5016022;28;20045;-73
2022/12/07 12:26:59;;;;;;;14.30;7.25;;;19.30;47.10;;;;;;5009916;28;20041;-74
2022/12/07 12:29:43;;;;;;;14.90;7.20;;;19.40;46.90;;;;;;5010303;28;20025;-75
2022/12/07 12:32:36;;;;;;;13.18;6.75;;;19.40;47.20;;;;;;5010207;28;20037;-74
2022/12/07 12:35:34;;;;;;;16.70;6.72;;;19.50;47.00;;;;;;5010057;28;20030;-75
2022/12/07 12:38:26;;;;;;;16.27;7.18;;;19.50;47.00;;;;;;5010152;28;20018;-75
2022/12/07 12:40:53;;;;;;;15.48;7.00;;;19.50;47.30;;;;;;5003123;28;20116;-77
2022/12/07 12:43:49;;;;;;;17.77;7.85;;;19.50;47.40;;;;;;5008798;28;20084;-75
2022/12/07 12:46:33;;;;;;;17.02;7.82;;;19.50;47.70;;;;;;5008811;28;20080;-77
2022/12/07 12:49:29;;;;;;;12.63;7.38;;;19.60;47.30;;;;;;4992244;28;20119;-77
2022/12/07 12:51:56;;;;;;;14.52;7.65;;;19.60;47.70;;;;;;4995449;28;20045;-76
2022/12/07 12:54:46;;;;;;;13.95;7.78;;;19.60;48.00;;;;;;5008745;28;20026;-77
2022/12/07 12:57:19;;;;;;;15.30;7.43;;;19.60;48.70;;;;;;5007207;28;20034;-76
2022/12/07 12:59:51;;;;;;;14.30;7.45;;;19.60;49.60;;;;;;5008669;28;20045;-77
2022/12/07 13:02:28;;;;;;;15.32;7.85;;;19.60;50.50;;;;;;5009768;28;20116;-76
2022/12/07 13:05:20;;;;;;;16.65;8.32;;;19.70;51.50;;;;;;5007909;28;20034;-76
2022/12/07 13:07:52;;;;;;;32.95;7.82;;;19.70;52.50;;;;;;5004435;28;20191;-76
2022/12/07 13:10:32;;;;;;;15.80;7.82;;;19.70;52.90;;;;;;5009707;28;20041;-76
2022/12/07 13:12:59;;;;;;;15.15;7.32;;;19.70;53.30;;;;;;5057268;28;20038;-76